createdAt,value
2022-09-15T00:01:11.507Z,7.40
2022-09-15T00:03:40.067Z,7.00
2022-09-15T00:06:08.183Z,6.80
2022-09-15T00:08:38.525Z,6.82
2022-09-15T00:11:16.799Z,6.65
2022-09-15T00:13:44.551Z,6.93
2022-09-15T00:16:15.204Z,5.63
2022-09-15T00:18:43.824Z,5.25
2022-09-15T00:21:14.389Z,6.57
2022-09-15T00:23:41.475Z,9.68
2022-09-15T00:26:12.647Z,7.05
2022-09-15T00:28:41.865Z,6.35
2022-09-15T00:31:16.422Z,4.68
2022-09-15T00:33:46.790Z,5.63
2022-09-15T00:36:14.924Z,7.30
2022-09-15T00:38:42.250Z,5.65
2022-09-15T00:41:12.148Z,4.85
2022-09-15T00:44:00.332Z,6.05
2022-09-15T00:46:39.012Z,5.53
2022-09-15T00:49:14.785Z,9.05
2022-09-15T00:51:51.629Z,5.72
2022-09-15T00:54:50.933Z,6.00
2022-09-15T00:57:22.055Z,4.50
2022-09-15T00:59:50.652Z,6.32
2022-09-15T01:02:29.954Z,6.65
2022-09-15T01:04:59.018Z,10.82
2022-09-15T01:07:43.754Z,5.00
2022-09-15T01:10:17.850Z,8.27
2022-09-15T01:12:46.213Z,6.10
2022-09-15T01:15:13.723Z,6.47
2022-09-15T01:18:08.341Z,6.38
2022-09-15T01:20:48.162Z,4.43
2022-09-15T01:23:58.826Z,6.05
2022-09-15T01:26:36.998Z,9.70
2022-09-15T01:29:39.739Z,6.55
2022-09-15T01:32:46.658Z,4.82
2022-09-15T01:35:52.467Z,9.00
2022-09-15T01:38:25.660Z,8.25
2022-09-15T01:41:08.229Z,7.03
2022-09-15T01:43:41.383Z,4.97
2022-09-15T01:46:10.147Z,6.38
2022-09-15T01:48:38.994Z,5.85
2022-09-15T01:51:07.095Z,6.18
2022-09-15T01:53:35.506Z,4.22
2022-09-15T01:56:12.310Z,5.93
2022-09-15T01:58:40.633Z,5.75
2022-09-15T02:01:22.423Z,8.10
2022-09-15T02:03:58.760Z,6.05
2022-09-15T02:06:46.622Z,5.45
2022-09-15T02:09:20.999Z,8.02
2022-09-15T02:11:58.398Z,5.03
2022-09-15T02:15:10.322Z,8.27
2022-09-15T02:17:43.433Z,7.18
2022-09-15T02:20:20.451Z,24.80
2022-09-15T02:22:54.022Z,7.35
2022-09-15T02:25:28.948Z,4.93
2022-09-15T02:28:02.785Z,8.27
2022-09-15T02:30:32.023Z,8.30
2022-09-15T02:33:02.960Z,5.88
2022-09-15T02:35:35.000Z,6.17
2022-09-15T02:38:05.346Z,10.25
2022-09-15T02:40:33.025Z,7.00
2022-09-15T02:43:01.962Z,8.82
2022-09-15T02:45:34.159Z,9.02
2022-09-15T02:48:01.556Z,5.93
2022-09-15T02:50:28.493Z,5.85
2022-09-15T02:52:55.960Z,5.13
2022-09-15T02:55:23.866Z,6.05
2022-09-15T02:57:51.144Z,6.97
2022-09-15T03:00:22.279Z,6.20
2022-09-15T03:02:52.327Z,6.45
2022-09-15T03:05:27.848Z,6.20
2022-09-15T03:07:55.938Z,5.35
2022-09-15T03:10:24.748Z,5.45
2022-09-15T03:12:53.246Z,7.50
2022-09-15T03:15:23.457Z,4.13
2022-09-15T03:17:51.155Z,7.30
2022-09-15T03:20:20.960Z,5.00
2022-09-15T03:22:49.686Z,5.53
2022-09-15T03:25:17.528Z,11.23
2022-09-15T03:27:44.847Z,9.93
2022-09-15T03:30:15.367Z,6.30
2022-09-15T03:32:42.344Z,7.75
2022-09-15T03:35:09.782Z,7.60
2022-09-15T03:37:37.287Z,6.70
2022-09-15T03:40:04.722Z,10.80
2022-09-15T03:42:32.416Z,9.85
2022-09-15T03:44:59.361Z,5.60
2022-09-15T03:47:26.238Z,6.43
2022-09-15T03:49:53.214Z,10.02
2022-09-15T03:52:20.228Z,7.32
2022-09-15T03:54:49.263Z,5.68
2022-09-15T03:57:16.205Z,5.35
2022-09-15T03:59:43.986Z,7.35
2022-09-15T04:02:11.256Z,7.10
2022-09-15T04:04:38.974Z,10.18
2022-09-15T04:07:05.954Z,10.82
2022-09-15T04:09:32.933Z,6.53
2022-09-15T04:12:01.249Z,12.32
2022-09-15T04:14:28.195Z,7.20
2022-09-15T04:16:55.354Z,5.78
2022-09-15T04:19:24.419Z,6.47
2022-09-15T04:21:51.420Z,7.57
2022-09-15T04:24:18.630Z,7.97
2022-09-15T04:26:45.661Z,8.30
2022-09-15T04:29:14.965Z,5.05
2022-09-15T04:31:42.368Z,11.55
2022-09-15T04:34:10.234Z,6.53
2022-09-15T04:36:37.469Z,5.35
2022-09-15T04:39:06.586Z,6.68
2022-09-15T04:41:33.996Z,7.68
2022-09-15T04:44:02.627Z,4.30
2022-09-15T04:46:29.736Z,5.35
2022-09-15T04:48:57.329Z,8.68
2022-09-15T04:51:25.290Z,5.88
2022-09-15T04:53:52.524Z,6.10
2022-09-15T04:56:24.614Z,6.38
2022-09-15T04:58:58.281Z,5.97
2022-09-15T05:01:35.552Z,6.15
2022-09-15T05:04:06.426Z,4.82
2022-09-15T05:06:35.016Z,6.70
2022-09-15T05:09:06.519Z,7.28
2022-09-15T05:11:37.380Z,6.80
2022-09-15T05:14:04.327Z,9.77
2022-09-15T05:16:32.048Z,15.05
2022-09-15T05:19:01.584Z,9.65
2022-09-15T05:21:29.201Z,9.23
2022-09-15T05:23:56.843Z,8.90
2022-09-15T05:26:28.894Z,5.15
2022-09-15T05:28:57.088Z,6.32
2022-09-15T05:31:31.000Z,7.35
2022-09-15T05:34:01.539Z,6.32
2022-09-15T05:36:28.888Z,6.20
2022-09-15T05:38:56.934Z,7.13
2022-09-15T05:41:25.653Z,4.78
2022-09-15T05:43:54.380Z,7.28
2022-09-15T05:46:21.729Z,5.80
2022-09-15T05:48:48.987Z,8.32
2022-09-15T05:51:16.468Z,9.95
2022-09-15T05:53:43.523Z,9.52
2022-09-15T05:56:12.554Z,10.45
2022-09-15T05:58:41.549Z,8.55
2022-09-15T06:01:13.645Z,6.53
2022-09-15T06:03:40.767Z,6.07
2022-09-15T06:06:07.864Z,7.75
2022-09-15T06:08:37.410Z,10.52
2022-09-15T06:11:09.989Z,9.80
2022-09-15T06:13:39.084Z,6.60
2022-09-15T06:16:19.374Z,5.90
2022-09-15T06:18:51.644Z,7.50
2022-09-15T06:21:24.865Z,8.20
2022-09-15T06:23:59.682Z,7.93
2022-09-15T06:26:27.615Z,9.77
2022-09-15T06:29:03.523Z,11.40
2022-09-15T06:31:32.348Z,13.90
2022-09-15T06:34:00.556Z,6.95
2022-09-15T06:36:29.869Z,10.23
2022-09-15T06:38:57.575Z,6.53
2022-09-15T06:41:26.405Z,7.80
2022-09-15T06:43:53.759Z,5.20
2022-09-15T06:46:25.864Z,7.32
2022-09-15T06:48:53.658Z,7.15
2022-09-15T06:51:23.517Z,10.73
2022-09-15T06:53:50.896Z,6.35
2022-09-15T06:56:20.147Z,4.55
2022-09-15T06:58:50.828Z,7.45
2022-09-15T07:01:29.450Z,5.22
2022-09-15T07:03:58.329Z,8.93
2022-09-15T07:06:28.049Z,7.60
2022-09-15T07:08:55.104Z,7.45
2022-09-15T07:11:22.060Z,6.60
2022-09-15T07:13:49.268Z,7.82
2022-09-15T07:16:18.953Z,6.78
2022-09-15T07:18:46.999Z,4.47
2022-09-15T07:21:22.524Z,5.47
2022-09-15T07:23:50.202Z,7.07
2022-09-15T07:26:18.851Z,9.95
2022-09-15T07:28:49.988Z,7.40
2022-09-15T07:31:19.977Z,3.63
2022-09-15T07:33:47.278Z,7.22
2022-09-15T07:36:16.975Z,9.02
2022-09-15T07:38:49.039Z,4.80
2022-09-15T07:41:21.438Z,5.47
2022-09-15T07:43:50.249Z,5.90
2022-09-15T07:46:18.017Z,3.95
2022-09-15T07:48:48.978Z,3.83
2022-09-15T07:51:16.694Z,4.03
2022-09-15T07:53:46.602Z,6.85
2022-09-15T07:56:17.946Z,7.82
2022-09-15T07:58:49.140Z,6.28
2022-09-15T08:01:18.154Z,7.72
2022-09-15T08:03:48.890Z,4.40
2022-09-15T08:06:20.174Z,7.43
2022-09-15T08:08:47.753Z,3.60
2022-09-15T08:11:20.631Z,8.23
2022-09-15T08:13:49.605Z,5.53
2022-09-15T08:16:19.526Z,5.95
2022-09-15T08:18:47.070Z,5.80
2022-09-15T08:21:22.482Z,4.50
2022-09-15T08:24:01.349Z,10.27
2022-09-15T08:26:29.754Z,6.38
2022-09-15T08:28:57.941Z,3.65
2022-09-15T08:31:25.625Z,5.57
2022-09-15T08:33:55.240Z,5.82
2022-09-15T08:36:23.116Z,3.05
2022-09-15T08:38:50.123Z,7.05
2022-09-15T08:41:36.137Z,4.30
2022-09-15T08:44:08.528Z,9.25
2022-09-15T08:46:43.338Z,3.22
2022-09-15T08:49:35.440Z,6.53
2022-09-15T08:52:13.750Z,3.20
2022-09-15T08:54:40.991Z,3.95
2022-09-15T08:57:14.314Z,3.03
2022-09-15T08:59:41.256Z,5.15
2022-09-15T09:02:26.064Z,2.75
2022-09-15T09:05:11.069Z,2.40
2022-09-15T09:07:38.184Z,3.38
2022-09-15T09:10:35.158Z,7.28
2022-09-15T09:13:35.746Z,3.45
2022-09-15T09:16:11.309Z,4.45
2022-09-15T09:18:46.838Z,5.18
2022-09-15T09:21:33.769Z,3.75
2022-09-15T09:24:12.670Z,3.08
2022-09-15T09:26:39.983Z,1.08
2022-09-15T09:29:16.666Z,1.00
2022-09-15T09:31:50.562Z,1.45
2022-09-15T09:34:24.449Z,2.35
2022-09-15T09:36:58.469Z,3.88
2022-09-15T09:39:27.691Z,3.55
2022-09-15T09:41:55.142Z,1.45
2022-09-15T09:44:31.852Z,4.00
2022-09-15T09:46:59.973Z,2.15
2022-09-15T09:49:31.692Z,0.80
2022-09-15T09:54:31.848Z,0.80
2022-09-15T09:57:14.311Z,1.00
2022-09-15T09:59:46.467Z,2.88
2022-09-15T10:02:24.979Z,2.92
2022-09-15T10:05:05.780Z,2.28
2022-09-15T10:07:40.688Z,2.28
2022-09-15T10:10:20.737Z,1.50
2022-09-15T10:12:48.543Z,1.65
2022-09-15T10:15:24.894Z,2.17
2022-09-15T10:17:53.220Z,1.38
2022-09-15T10:20:49.785Z,4.72
2022-09-15T10:23:16.874Z,3.03
2022-09-15T10:25:58.526Z,2.55
2022-09-15T10:28:27.715Z,1.25
2022-09-15T10:31:05.385Z,3.78
2022-09-15T10:33:36.765Z,3.35
2022-09-15T10:36:11.341Z,1.95
2022-09-15T10:38:48.372Z,1.70
2022-09-15T10:41:31.452Z,4.35
2022-09-15T10:43:58.338Z,9.27
2022-09-15T10:46:46.524Z,0.70
2022-09-15T10:49:45.425Z,1.40
2022-09-15T10:52:18.534Z,1.42
2022-09-15T10:54:51.852Z,1.30
2022-09-15T10:57:53.677Z,2.40
2022-09-15T11:00:26.262Z,0.50
2022-09-15T11:03:22.655Z,0.90
2022-09-15T11:05:55.418Z,3.30
2022-09-15T11:08:53.359Z,0.88
2022-09-15T11:11:43.501Z,1.13
2022-09-15T11:14:29.023Z,2.00
2022-09-15T11:17:01.989Z,1.02
2022-09-15T11:20:00.083Z,3.30
2022-09-15T11:22:36.526Z,3.38
2022-09-15T11:25:17.679Z,4.40
2022-09-15T11:28:13.641Z,2.58
2022-09-15T11:30:50.455Z,2.35
2022-09-15T11:33:30.846Z,2.97
2022-09-15T11:36:22.793Z,4.22
2022-09-15T11:42:01.292Z,1.40
2022-09-15T11:44:28.272Z,3.50
2022-09-15T11:47:17.687Z,2.22
2022-09-15T11:49:59.260Z,1.58
2022-09-15T11:53:05.790Z,1.20
2022-09-15T11:55:44.785Z,3.80
2022-09-15T11:58:48.539Z,1.10
2022-09-15T12:01:21.831Z,3.28
2022-09-15T12:04:13.756Z,2.28
2022-09-15T12:06:54.301Z,2.63
2022-09-15T12:09:22.678Z,1.83
2022-09-15T12:12:05.841Z,4.40
2022-09-15T12:14:36.207Z,0.98
2022-09-15T12:17:07.128Z,0.63
2022-09-15T12:19:42.144Z,1.40
2022-09-15T12:22:29.076Z,4.22
2022-09-15T12:25:13.251Z,0.80
2022-09-15T12:27:40.479Z,2.03
2022-09-15T12:30:53.736Z,0.98
2022-09-15T12:33:42.355Z,2.22
2022-09-15T12:36:48.030Z,1.55
2022-09-15T12:39:32.375Z,0.45
2022-09-15T12:42:08.601Z,3.13
2022-09-15T12:44:44.827Z,0.57
2022-09-15T12:47:28.650Z,1.55
2022-09-15T12:50:21.397Z,1.92
2022-09-15T12:52:53.852Z,1.55
2022-09-15T12:55:36.197Z,3.53
2022-09-15T12:58:20.237Z,1.20
2022-09-15T13:01:14.362Z,4.68
2022-09-15T13:03:37.986Z,2.95
2022-09-15T13:06:11.076Z,2.35
2022-09-15T13:08:38.192Z,1.80
2022-09-15T13:11:09.618Z,1.45
2022-09-15T13:14:08.341Z,1.73
2022-09-15T13:16:41.491Z,1.05
2022-09-15T13:19:33.442Z,1.25
2022-09-15T13:25:02.073Z,1.00
2022-09-15T13:27:54.207Z,1.48
2022-09-15T13:30:24.297Z,1.23
2022-09-15T13:33:15.936Z,5.88
2022-09-15T13:35:42.972Z,1.08
2022-09-15T13:38:39.540Z,3.40
2022-09-15T13:41:37.228Z,1.88
2022-09-15T13:44:35.172Z,1.63
2022-09-15T13:47:23.654Z,1.48
2022-09-15T13:49:53.688Z,1.77
2022-09-15T13:52:25.832Z,1.35
2022-09-15T13:55:14.591Z,5.68
2022-09-15T14:00:34.127Z,1.60
2022-09-15T14:03:17.396Z,2.05
2022-09-15T14:05:45.613Z,1.30
2022-09-15T14:08:24.360Z,2.17
2022-09-15T14:10:59.079Z,1.25
2022-09-15T14:13:28.503Z,0.98
2022-09-15T14:16:08.033Z,2.17
2022-09-15T14:21:23.879Z,0.73
2022-09-15T14:23:56.799Z,1.92
2022-09-15T14:26:33.132Z,3.42
2022-09-15T14:29:02.524Z,2.08
2022-09-15T14:31:41.064Z,2.17
2022-09-15T14:34:17.256Z,2.47
2022-09-15T14:36:44.392Z,3.42
2022-09-15T14:39:22.805Z,3.97
2022-09-15T14:41:51.577Z,1.50
2022-09-15T14:47:29.955Z,1.63
2022-09-15T14:50:16.868Z,1.00
2022-09-15T14:52:52.116Z,1.92
2022-09-15T14:55:49.928Z,0.75
2022-09-15T14:58:32.661Z,1.13
2022-09-15T15:01:06.424Z,0.80
2022-09-15T15:03:43.942Z,0.63
2022-09-15T15:06:29.426Z,2.47
2022-09-15T15:09:06.332Z,2.33
2022-09-15T15:11:34.987Z,1.95
2022-09-15T15:14:03.669Z,1.73
2022-09-15T15:16:32.025Z,0.45
2022-09-15T15:18:59.293Z,3.63
2022-09-15T15:21:43.915Z,2.80
2022-09-15T15:24:32.201Z,0.40
2022-09-15T15:27:34.319Z,3.58
2022-09-15T15:30:31.976Z,7.45
2022-09-15T15:33:16.147Z,2.55
2022-09-15T15:35:48.560Z,3.22
2022-09-15T15:38:27.384Z,1.95
2022-09-15T15:41:03.914Z,2.40
2022-09-15T15:43:31.650Z,1.85
2022-09-15T15:46:04.877Z,3.75
2022-09-15T15:48:37.874Z,2.05
2022-09-15T15:51:06.613Z,5.00
2022-09-15T15:53:34.436Z,4.35
2022-09-15T15:56:01.567Z,2.90
2022-09-15T15:58:28.558Z,2.42
2022-09-15T16:00:56.878Z,0.80
2022-09-15T16:03:24.864Z,0.90
2022-09-15T16:05:59.529Z,0.85
2022-09-15T16:08:38.116Z,1.40
2022-09-15T16:11:08.018Z,1.10
2022-09-15T16:13:35.233Z,1.75
2022-09-15T16:16:02.611Z,1.00
2022-09-15T16:18:29.688Z,0.95
2022-09-15T16:20:58.163Z,0.93
2022-09-15T16:23:25.132Z,1.73
2022-09-15T16:26:01.259Z,2.35
2022-09-15T16:28:30.164Z,1.45
2022-09-15T16:30:57.678Z,2.05
2022-09-15T16:33:25.955Z,3.40
2022-09-15T16:36:08.166Z,2.55
2022-09-15T16:38:36.984Z,1.33
2022-09-15T16:41:13.372Z,2.35
2022-09-15T16:43:40.392Z,1.65
2022-09-15T16:46:08.801Z,3.00
2022-09-15T16:48:35.726Z,2.03
2022-09-15T16:51:20.938Z,4.82
2022-09-15T16:53:52.062Z,1.65
2022-09-15T16:56:19.195Z,2.50
2022-09-15T16:58:46.134Z,2.63
2022-09-15T17:01:18.589Z,2.58
2022-09-15T17:03:45.804Z,1.27
2022-09-15T17:06:14.541Z,2.10
2022-09-15T17:08:41.808Z,3.55
2022-09-15T17:11:16.507Z,1.13
2022-09-15T17:13:44.635Z,2.28
2022-09-15T17:16:14.928Z,1.42
2022-09-15T17:18:41.918Z,2.67
2022-09-15T17:21:12.832Z,7.57
2022-09-15T17:23:44.027Z,1.83
2022-09-15T17:26:13.839Z,5.93
2022-09-15T17:28:42.266Z,6.05
2022-09-15T17:31:21.211Z,3.05
2022-09-15T17:33:49.313Z,2.80
2022-09-15T17:36:16.892Z,6.32
2022-09-15T17:38:45.410Z,5.53
2022-09-15T17:41:17.381Z,2.10
2022-09-15T17:43:44.601Z,4.38
2022-09-15T17:46:11.855Z,0.68
2022-09-15T17:48:39.284Z,2.75
2022-09-15T17:51:13.010Z,4.18
2022-09-15T17:53:40.394Z,0.73
2022-09-15T17:56:07.302Z,2.78
2022-09-15T17:58:34.378Z,2.83
2022-09-15T18:01:02.326Z,0.93
2022-09-15T18:03:37.421Z,3.72
2022-09-15T18:06:08.269Z,3.80
2022-09-15T18:08:36.173Z,7.30
2022-09-15T18:11:04.862Z,7.70
2022-09-15T18:13:31.916Z,3.63
2022-09-15T18:16:07.356Z,2.25
2022-09-15T18:18:34.454Z,3.80
2022-09-15T18:21:01.990Z,4.57
2022-09-15T18:23:29.862Z,5.68
2022-09-15T18:25:57.313Z,4.00
2022-09-15T18:28:25.075Z,3.83
2022-09-15T18:30:52.228Z,3.35
2022-09-15T18:33:24.727Z,3.38
2022-09-15T18:35:54.125Z,4.03
2022-09-15T18:38:22.050Z,1.38
2022-09-15T18:40:55.357Z,2.83
2022-09-15T18:43:25.151Z,5.97
2022-09-15T18:45:54.844Z,3.30
2022-09-15T18:48:21.797Z,2.83
2022-09-15T18:50:48.847Z,5.18
2022-09-15T18:53:16.547Z,1.02
2022-09-15T18:55:43.824Z,13.13
2022-09-15T18:58:12.051Z,0.52
2022-09-15T19:00:39.261Z,0.38
2022-09-15T19:03:09.686Z,1.17
2022-09-15T19:05:37.810Z,1.63
2022-09-15T19:08:05.178Z,3.25
2022-09-15T19:10:32.576Z,4.00
2022-09-15T19:12:59.511Z,1.35
2022-09-15T19:15:27.658Z,1.13
2022-09-15T19:17:54.824Z,2.03
2022-09-15T19:20:21.786Z,4.53
2022-09-15T19:22:51.266Z,3.63
2022-09-15T19:25:18.584Z,5.30
2022-09-15T19:27:45.516Z,6.07
2022-09-15T19:30:12.785Z,3.17
2022-09-15T19:32:41.831Z,1.70
2022-09-15T19:35:11.347Z,2.10
2022-09-15T19:37:40.073Z,4.82
2022-09-15T19:40:10.001Z,2.50
2022-09-15T19:42:38.858Z,2.92
2022-09-15T19:45:10.511Z,2.90
2022-09-15T19:47:42.095Z,2.17
2022-09-15T19:50:14.852Z,3.70
2022-09-15T19:52:47.046Z,1.85
2022-09-15T19:55:18.228Z,2.38
2022-09-15T19:57:49.113Z,2.03
2022-09-15T20:00:16.756Z,5.70
2022-09-15T20:02:48.721Z,4.70
2022-09-15T20:05:15.793Z,3.10
2022-09-15T20:07:45.029Z,4.60
2022-09-15T20:10:13.414Z,1.95
2022-09-15T20:12:41.293Z,4.65
2022-09-15T20:15:08.759Z,4.10
2022-09-15T20:17:41.782Z,5.93
2022-09-15T20:20:13.394Z,5.38
2022-09-15T20:22:40.748Z,2.20
2022-09-15T20:25:07.937Z,3.20
2022-09-15T20:27:42.996Z,2.17
2022-09-15T20:30:17.237Z,2.22
2022-09-15T20:32:44.360Z,1.30
2022-09-15T20:35:11.359Z,1.27
2022-09-15T20:37:38.582Z,2.92
2022-09-15T20:40:10.234Z,1.40
2022-09-15T20:42:38.534Z,5.35
2022-09-15T20:45:08.008Z,4.18
2022-09-15T20:47:35.140Z,3.67
2022-09-15T20:50:02.291Z,3.60
2022-09-15T20:52:35.903Z,4.95
2022-09-15T20:55:05.835Z,6.90
2022-09-15T20:57:32.911Z,6.85
2022-09-15T20:59:59.894Z,5.88
2022-09-15T21:02:27.004Z,3.90
2022-09-15T21:04:54.141Z,2.28
2022-09-15T21:07:21.035Z,1.95
2022-09-15T21:09:51.456Z,2.17
2022-09-15T21:12:18.593Z,1.25
2022-09-15T21:14:45.674Z,3.35
2022-09-15T21:17:13.131Z,5.22
2022-09-15T21:19:40.714Z,3.00
2022-09-15T21:22:07.997Z,1.00
2022-09-15T21:24:36.242Z,3.15
2022-09-15T21:27:30.775Z,1.48
2022-09-15T21:29:57.998Z,1.80
2022-09-15T21:32:25.084Z,2.20
2022-09-15T21:34:52.105Z,3.08
2022-09-15T21:37:19.322Z,1.75
2022-09-15T21:39:46.409Z,2.63
2022-09-15T21:42:14.469Z,2.22
2022-09-15T21:44:41.822Z,2.72
2022-09-15T21:47:09.011Z,3.70
2022-09-15T21:49:36.752Z,3.47
2022-09-15T21:52:03.700Z,2.03
2022-09-15T21:54:34.555Z,3.30
2022-09-15T21:57:01.563Z,2.47
2022-09-15T21:59:28.732Z,2.40
2022-09-15T22:01:55.849Z,2.65
2022-09-15T22:04:22.932Z,4.85
2022-09-15T22:06:50.863Z,5.45
2022-09-15T22:09:22.047Z,1.58
2022-09-15T22:11:49.392Z,0.98
2022-09-15T22:14:16.403Z,3.70
2022-09-15T22:16:43.476Z,1.67
2022-09-15T22:19:11.933Z,7.15
2022-09-15T22:21:42.190Z,3.40
2022-09-15T22:24:11.676Z,4.57
2022-09-15T22:26:39.201Z,3.67
2022-09-15T22:29:06.819Z,0.82
2022-09-15T22:31:34.392Z,2.60
2022-09-15T22:34:01.779Z,2.75
2022-09-15T22:36:30.861Z,3.58
2022-09-15T22:39:05.870Z,1.75
2022-09-15T22:41:36.213Z,5.47
2022-09-15T22:44:04.841Z,1.02
2022-09-15T22:46:31.947Z,2.55
2022-09-15T22:48:59.015Z,1.08
2022-09-15T22:51:25.952Z,3.45
2022-09-15T22:53:56.616Z,3.38
2022-09-15T22:56:25.739Z,0.93
2022-09-15T22:58:53.043Z,4.85
2022-09-15T23:01:23.920Z,2.22
2022-09-15T23:03:52.538Z,3.22
2022-09-15T23:06:20.284Z,5.32
2022-09-15T23:08:51.771Z,1.42
2022-09-15T23:11:19.140Z,3.22
2022-09-15T23:13:46.276Z,2.50
2022-09-15T23:16:14.407Z,2.30
2022-09-15T23:18:41.643Z,4.18
2022-09-15T23:21:10.640Z,0.90
2022-09-15T23:23:40.006Z,3.50
2022-09-15T23:26:10.295Z,7.88
2022-09-15T23:28:41.290Z,2.53
2022-09-15T23:31:10.938Z,2.87
2022-09-15T23:33:38.224Z,2.20
2022-09-15T23:36:09.971Z,2.67
2022-09-15T23:38:39.352Z,3.38
2022-09-15T23:41:07.686Z,5.18
2022-09-15T23:43:34.741Z,1.48
2022-09-15T23:46:02.708Z,1.35
2022-09-15T23:48:32.533Z,4.05
2022-09-15T23:50:59.950Z,1.30
2022-09-15T23:53:27.048Z,2.85
2022-09-15T23:55:54.703Z,4.20
2022-09-15T23:58:22.048Z,2.78
